sensor_id;sensor_type;location;lat;lon;timestamp;pressure;altitude;pressure_sealevel;temperature;humidity
47883;BME280;37739;50.350;7.578;2023-04-09T00:01:47;100586.25;;;10.09;63.12
47883;BME280;37739;50.350;7.578;2023-04-09T00:04:13;100599.84;;;10.08;63.31
47883;BME280;37739;50.350;7.578;2023-04-09T00:06:43;100596.97;;;10.01;63.93
47883;BME280;37739;50.350;7.578;2023-04-09T00:09:08;100595.38;;;10.03;63.33
47883;BME280;37739;50.350;7.578;2023-04-09T00:11:33;100598.03;;;10.05;63.02
47883;BME280;37739;50.350;7.578;2023-04-09T00:13:59;100596.34;;;10.06;62.98
47883;BME280;37739;50.350;7.578;2023-04-09T00:16:26;100586.94;;;10.06;63.03
47883;BME280;37739;50.350;7.578;2023-04-09T00:18:52;100593.69;;;10.04;63.42
47883;BME280;37739;50.350;7.578;2023-04-09T00:21:17;100590.97;;;10.01;62.95
47883;BME280;37739;50.350;7.578;2023-04-09T00:23:42;100598.72;;;10.02;63.14
47883;BME280;37739;50.350;7.578;2023-04-09T00:26:08;100595.16;;;9.99;63.13
47883;BME280;37739;50.350;7.578;2023-04-09T00:28:34;100584.72;;;9.96;63.07
47883;BME280;37739;50.350;7.578;2023-04-09T00:31:00;100592.41;;;9.96;63.27
47883;BME280;37739;50.350;7.578;2023-04-09T00:33:31;100591.53;;;9.95;63.18
47883;BME280;37739;50.350;7.578;2023-04-09T00:35:58;100584.63;;;9.94;63.36
47883;BME280;37739;50.350;7.578;2023-04-09T00:38:26;100583.75;;;9.94;63.42
47883;BME280;37739;50.350;7.578;2023-04-09T00:40:56;100586.97;;;9.90;63.48
47883;BME280;37739;50.350;7.578;2023-04-09T00:43:24;100589.28;;;9.85;63.75
47883;BME280;37739;50.350;7.578;2023-04-09T00:45:52;100585.28;;;9.74;64.39
47883;BME280;37739;50.350;7.578;2023-04-09T00:48:19;100584.38;;;9.73;64.68
47883;BME280;37739;50.350;7.578;2023-04-09T00:50:45;100575.44;;;9.65;65.39
47883;BME280;37739;50.350;7.578;2023-04-09T00:53:13;100577.66;;;9.59;65.03
47883;BME280;37739;50.350;7.578;2023-04-09T00:55:41;100579.78;;;9.66;64.87
47883;BME280;37739;50.350;7.578;2023-04-09T00:58:07;100586.09;;;9.73;64.89
47883;BME280;37739;50.350;7.578;2023-04-09T01:00:32;100583.59;;;9.74;64.74
47883;BME280;37739;50.350;7.578;2023-04-09T01:02:58;100578.47;;;9.74;64.95
47883;BME280;37739;50.350;7.578;2023-04-09T01:05:49;100588.66;;;9.73;64.44
47883;BME280;37739;50.350;7.578;2023-04-09T01:08:40;100591.28;;;9.74;64.51
47883;BME280;37739;50.350;7.578;2023-04-09T01:16:33;100580.41;;;9.78;64.80
47883;BME280;37739;50.350;7.578;2023-04-09T01:19:02;100586.16;;;9.74;64.71
47883;BME280;37739;50.350;7.578;2023-04-09T01:21:37;100585.28;;;9.74;64.78
47883;BME280;37739;50.350;7.578;2023-04-09T01:27:08;100583.19;;;9.67;64.64
47883;BME280;37739;50.350;7.578;2023-04-09T01:29:37;100572.06;;;9.66;64.89
47883;BME280;37739;50.350;7.578;2023-04-09T01:32:04;100584.06;;;9.67;64.57
47883;BME280;37739;50.350;7.578;2023-04-09T01:34:32;100581.34;;;9.64;64.53
47883;BME280;37739;50.350;7.578;2023-04-09T01:37:02;100586.13;;;9.58;64.89
47883;BME280;37739;50.350;7.578;2023-04-09T01:39:28;100585.19;;;9.56;64.87
47883;BME280;37739;50.350;7.578;2023-04-09T01:41:54;100585.63;;;9.49;64.93
47883;BME280;37739;50.350;7.578;2023-04-09T01:44:23;100583.81;;;9.46;64.79
47883;BME280;37739;50.350;7.578;2023-04-09T01:46:50;100587.63;;;9.38;65.52
47883;BME280;37739;50.350;7.578;2023-04-09T01:49:16;100582.06;;;9.45;65.22
47883;BME280;37739;50.350;7.578;2023-04-09T01:51:42;100581.25;;;9.46;64.25
47883;BME280;37739;50.350;7.578;2023-04-09T01:54:10;100580.91;;;9.40;65.01
47883;BME280;37739;50.350;7.578;2023-04-09T01:56:39;100586.81;;;9.39;64.12
47883;BME280;37739;50.350;7.578;2023-04-09T01:59:05;100579.50;;;9.45;64.76
47883;BME280;37739;50.350;7.578;2023-04-09T02:02:03;100574.28;;;9.43;64.93
47883;BME280;37739;50.350;7.578;2023-04-09T02:04:36;100585.22;;;9.41;64.89
47883;BME280;37739;50.350;7.578;2023-04-09T02:09:35;100571.84;;;9.30;65.32
47883;BME280;37739;50.350;7.578;2023-04-09T02:12:05;100576.44;;;9.36;64.90
47883;BME280;37739;50.350;7.578;2023-04-09T02:14:34;100574.44;;;9.15;65.47
47883;BME280;37739;50.350;7.578;2023-04-09T02:17:02;100576.59;;;9.08;66.55
47883;BME280;37739;50.350;7.578;2023-04-09T02:19:40;100574.38;;;9.14;65.84
47883;BME280;37739;50.350;7.578;2023-04-09T02:22:09;100577.31;;;9.05;66.17
47883;BME280;37739;50.350;7.578;2023-04-09T02:24:38;100568.25;;;8.80;67.30
47883;BME280;37739;50.350;7.578;2023-04-09T02:27:07;100568.34;;;8.97;66.80
47883;BME280;37739;50.350;7.578;2023-04-09T02:29:40;100573.31;;;9.10;66.43
47883;BME280;37739;50.350;7.578;2023-04-09T02:32:08;100571.75;;;9.12;66.57
47883;BME280;37739;50.350;7.578;2023-04-09T02:34:36;100574.31;;;9.12;66.90
47883;BME280;37739;50.350;7.578;2023-04-09T02:37:02;100574.13;;;9.09;66.84
47883;BME280;37739;50.350;7.578;2023-04-09T02:39:27;100566.69;;;9.14;66.15
47883;BME280;37739;50.350;7.578;2023-04-09T02:41:54;100571.13;;;9.16;66.18
47883;BME280;37739;50.350;7.578;2023-04-09T02:44:22;100569.38;;;9.00;66.80
47883;BME280;37739;50.350;7.578;2023-04-09T02:46:52;100564.91;;;8.81;68.00
47883;BME280;37739;50.350;7.578;2023-04-09T02:49:17;100555.28;;;8.77;67.89
47883;BME280;37739;50.350;7.578;2023-04-09T02:51:42;100567.09;;;8.90;67.48
47883;BME280;37739;50.350;7.578;2023-04-09T02:54:10;100564.53;;;8.90;67.52
47883;BME280;37739;50.350;7.578;2023-04-09T02:56:37;100556.78;;;8.89;67.87
47883;BME280;37739;50.350;7.578;2023-04-09T02:59:03;100560.56;;;8.95;67.61
47883;BME280;37739;50.350;7.578;2023-04-09T03:01:28;100560.28;;;8.91;67.35
47883;BME280;37739;50.350;7.578;2023-04-09T03:03:56;100556.22;;;8.94;67.85
47883;BME280;37739;50.350;7.578;2023-04-09T03:06:23;100558.09;;;8.97;67.52
47883;BME280;37739;50.350;7.578;2023-04-09T03:08:51;100552.63;;;8.91;68.04
47883;BME280;37739;50.350;7.578;2023-04-09T03:11:16;100553.59;;;8.93;68.07
47883;BME280;37739;50.350;7.578;2023-04-09T03:13:44;100560.72;;;8.98;68.03
47883;BME280;37739;50.350;7.578;2023-04-09T03:16:09;100551.38;;;8.99;68.06
47883;BME280;37739;50.350;7.578;2023-04-09T03:18:40;100549.59;;;8.98;68.00
47883;BME280;37739;50.350;7.578;2023-04-09T03:21:06;100553.03;;;8.98;68.03
47883;BME280;37739;50.350;7.578;2023-04-09T03:23:32;100550.44;;;8.97;68.19
47883;BME280;37739;50.350;7.578;2023-04-09T03:26:02;100545.47;;;9.00;67.87
47883;BME280;37739;50.350;7.578;2023-04-09T03:28:28;100546.41;;;9.02;67.65
47883;BME280;37739;50.350;7.578;2023-04-09T03:30:53;100540.34;;;9.00;67.95
47883;BME280;37739;50.350;7.578;2023-04-09T03:33:21;100542.16;;;9.02;67.75
47883;BME280;37739;50.350;7.578;2023-04-09T03:35:46;100540.44;;;9.01;68.42
47883;BME280;37739;50.350;7.578;2023-04-09T03:38:12;100542.25;;;9.04;67.74
47883;BME280;37739;50.350;7.578;2023-04-09T03:40:44;100538.75;;;9.02;68.34
47883;BME280;37739;50.350;7.578;2023-04-09T03:43:09;100537.69;;;8.98;68.36
47883;BME280;37739;50.350;7.578;2023-04-09T03:45:35;100535.06;;;8.97;68.93
47883;BME280;37739;50.350;7.578;2023-04-09T03:48:00;100538.59;;;8.99;68.62
47883;BME280;37739;50.350;7.578;2023-04-09T03:50:25;100536.47;;;8.92;68.75
47883;BME280;37739;50.350;7.578;2023-04-09T03:52:51;100533.75;;;8.89;69.03
47883;BME280;37739;50.350;7.578;2023-04-09T03:55:21;100534.56;;;8.88;68.97
47883;BME280;37739;50.350;7.578;2023-04-09T03:57:46;100535.34;;;8.87;69.13
47883;BME280;37739;50.350;7.578;2023-04-09T04:00:12;100543.00;;;8.87;69.25
47883;BME280;37739;50.350;7.578;2023-04-09T04:02:37;100542.84;;;8.83;69.19
47883;BME280;37739;50.350;7.578;2023-04-09T04:05:05;100550.34;;;8.80;69.65
47883;BME280;37739;50.350;7.578;2023-04-09T04:07:33;100541.81;;;8.80;69.17
47883;BME280;37739;50.350;7.578;2023-04-09T04:10:02;100547.78;;;8.80;69.83
47883;BME280;37739;50.350;7.578;2023-04-09T04:12:30;100545.88;;;8.76;69.96
47883;BME280;37739;50.350;7.578;2023-04-09T04:14:58;100549.31;;;8.62;70.22
47883;BME280;37739;50.350;7.578;2023-04-09T04:17:25;100547.81;;;8.65;70.36
47883;BME280;37739;50.350;7.578;2023-04-09T04:19:53;100553.19;;;8.70;70.01
47883;BME280;37739;50.350;7.578;2023-04-09T04:22:24;100550.63;;;8.70;69.83
47883;BME280;37739;50.350;7.578;2023-04-09T04:24:52;100548.94;;;8.71;69.86
47883;BME280;37739;50.350;7.578;2023-04-09T04:27:17;100550.78;;;8.73;70.02
47883;BME280;37739;50.350;7.578;2023-04-09T04:29:44;100554.16;;;8.72;69.45
47883;BME280;37739;50.350;7.578;2023-04-09T04:32:12;100545.69;;;8.73;69.59
47883;BME280;37739;50.350;7.578;2023-04-09T04:34:37;100553.53;;;8.76;69.10
47883;BME280;37739;50.350;7.578;2023-04-09T04:37:03;100555.38;;;8.79;69.26
47883;BME280;37739;50.350;7.578;2023-04-09T04:39:29;100554.41;;;8.77;68.98
47883;BME280;37739;50.350;7.578;2023-04-09T04:41:57;100552.66;;;8.76;69.17
47883;BME280;37739;50.350;7.578;2023-04-09T04:44:25;100547.44;;;8.74;68.92
47883;BME280;37739;50.350;7.578;2023-04-09T04:46:54;100551.75;;;8.75;68.28
47883;BME280;37739;50.350;7.578;2023-04-09T04:49:20;100556.00;;;8.75;68.44
47883;BME280;37739;50.350;7.578;2023-04-09T04:51:45;100550.88;;;8.75;68.31
47883;BME280;37739;50.350;7.578;2023-04-09T04:54:10;100551.75;;;8.75;68.32
47883;BME280;37739;50.350;7.578;2023-04-09T04:56:38;100552.66;;;8.76;68.25
47883;BME280;37739;50.350;7.578;2023-04-09T04:59:03;100548.41;;;8.76;67.80
47883;BME280;37739;50.350;7.578;2023-04-09T05:01:29;100552.66;;;8.76;67.99
47883;BME280;37739;50.350;7.578;2023-04-09T05:03:54;100556.81;;;8.74;68.04
47883;BME280;37739;50.350;7.578;2023-04-09T05:06:19;100556.63;;;8.71;68.23
47883;BME280;37739;50.350;7.578;2023-04-09T05:08:49;100556.72;;;8.72;68.49
47883;BME280;37739;50.350;7.578;2023-04-09T05:11:23;100557.50;;;8.71;68.06
47883;BME280;37739;50.350;7.578;2023-04-09T05:13:48;100554.84;;;8.70;68.23
47883;BME280;37739;50.350;7.578;2023-04-09T05:16:16;100554.84;;;8.70;68.20
47883;BME280;37739;50.350;7.578;2023-04-09T05:18:42;100559.72;;;8.65;67.96
47883;BME280;37739;50.350;7.578;2023-04-09T05:21:10;100552.03;;;8.65;67.69
47883;BME280;37739;50.350;7.578;2023-04-09T05:23:35;100560.78;;;8.69;67.46
47883;BME280;37739;50.350;7.578;2023-04-09T05:26:00;100561.31;;;8.63;67.21
47883;BME280;37739;50.350;7.578;2023-04-09T05:28:26;100562.72;;;8.58;67.33
47883;BME280;37739;50.350;7.578;2023-04-09T05:30:51;100562.81;;;8.59;67.71
47883;BME280;37739;50.350;7.578;2023-04-09T05:33:19;100556.97;;;8.62;67.27
47883;BME280;37739;50.350;7.578;2023-04-09T05:35:47;100563.69;;;8.60;67.73
47883;BME280;37739;50.350;7.578;2023-04-09T05:38:14;100561.94;;;8.59;68.17
47883;BME280;37739;50.350;7.578;2023-04-09T05:40:39;100559.19;;;8.56;67.61
47883;BME280;37739;50.350;7.578;2023-04-09T05:43:06;100557.25;;;8.52;67.12
47883;BME280;37739;50.350;7.578;2023-04-09T05:45:31;100557.34;;;8.53;66.90
47883;BME280;37739;50.350;7.578;2023-04-09T05:48:00;100562.19;;;8.49;66.72
47883;BME280;37739;50.350;7.578;2023-04-09T05:50:29;100556.09;;;8.47;66.99
47883;BME280;37739;50.350;7.578;2023-04-09T05:52:55;100566.53;;;8.50;67.13
47883;BME280;37739;50.350;7.578;2023-04-09T05:55:22;100567.75;;;8.56;67.10
47883;BME280;37739;50.350;7.578;2023-04-09T05:57:51;100565.03;;;8.53;67.36
47883;BME280;37739;50.350;7.578;2023-04-09T06:00:16;100564.16;;;8.53;67.95
47883;BME280;37739;50.350;7.578;2023-04-09T06:02:43;100573.84;;;8.43;68.49
47883;BME280;37739;50.350;7.578;2023-04-09T06:05:08;100579.59;;;8.41;68.76
47883;BME280;37739;50.350;7.578;2023-04-09T06:07:39;100572.66;;;8.38;69.29
47883;BME280;37739;50.350;7.578;2023-04-09T06:10:05;100581.28;;;8.40;69.41
47883;BME280;37739;50.350;7.578;2023-04-09T06:12:33;100583.44;;;8.48;68.99
47883;BME280;37739;50.350;7.578;2023-04-09T06:15:00;100579.31;;;8.50;69.43
47883;BME280;37739;50.350;7.578;2023-04-09T06:17:27;100579.03;;;8.60;68.52
47883;BME280;37739;50.350;7.578;2023-04-09T06:19:55;100583.72;;;8.67;68.30
47883;BME280;37739;50.350;7.578;2023-04-09T06:22:22;100574.28;;;8.66;68.28
47883;BME280;37739;50.350;7.578;2023-04-09T06:24:49;100577.88;;;8.70;68.52
47883;BME280;37739;50.350;7.578;2023-04-09T06:27:17;100579.91;;;8.75;68.27
47883;BME280;37739;50.350;7.578;2023-04-09T06:29:43;100579.03;;;8.75;67.96
47883;BME280;37739;50.350;7.578;2023-04-09T06:32:11;100583.09;;;8.71;67.85
47883;BME280;37739;50.350;7.578;2023-04-09T06:34:38;100584.06;;;8.73;67.92
47883;BME280;37739;50.350;7.578;2023-04-09T06:37:04;100578.84;;;8.72;67.79
47883;BME280;37739;50.350;7.578;2023-04-09T06:39:31;100578.59;;;8.67;67.38
47883;BME280;37739;50.350;7.578;2023-04-09T06:41:57;100584.88;;;8.72;67.24
47883;BME280;37739;50.350;7.578;2023-04-09T06:44:25;100581.59;;;8.75;67.30
47883;BME280;37739;50.350;7.578;2023-04-09T06:46:55;100584.97;;;8.74;66.83
47883;BME280;37739;50.350;7.578;2023-04-09T06:49:21;100585.31;;;8.80;66.78
47883;BME280;37739;50.350;7.578;2023-04-09T06:51:49;100581.16;;;8.82;66.52
47883;BME280;37739;50.350;7.578;2023-04-09T06:54:20;100583.16;;;8.88;66.56
47883;BME280;37739;50.350;7.578;2023-04-09T06:56:45;100582.53;;;8.92;65.99
47883;BME280;37739;50.350;7.578;2023-04-09T06:59:10;100584.47;;;8.96;66.31
47883;BME280;37739;50.350;7.578;2023-04-09T07:01:36;100582.97;;;8.99;65.68
47883;BME280;37739;50.350;7.578;2023-04-09T07:04:02;100581.47;;;9.03;65.86
47883;BME280;37739;50.350;7.578;2023-04-09T07:06:27;100582.84;;;9.13;65.91
47883;BME280;37739;50.350;7.578;2023-04-09T07:08:53;100585.94;;;9.22;65.43
47883;BME280;37739;50.350;7.578;2023-04-09T07:11:20;100588.97;;;9.31;65.52
47883;BME280;37739;50.350;7.578;2023-04-09T07:13:46;100587.31;;;9.32;65.37
47883;BME280;37739;50.350;7.578;2023-04-09T07:16:13;100592.50;;;9.33;65.37
47883;BME280;37739;50.350;7.578;2023-04-09T07:18:41;100595.56;;;9.42;64.83
47883;BME280;37739;50.350;7.578;2023-04-09T07:21:06;100591.66;;;9.49;64.53
47883;BME280;37739;50.350;7.578;2023-04-09T07:23:34;100597.19;;;9.57;64.53
47883;BME280;37739;50.350;7.578;2023-04-09T07:26:04;100592.31;;;9.61;64.38
47883;BME280;37739;50.350;7.578;2023-04-09T07:28:29;100595.06;;;9.65;64.43
47883;BME280;37739;50.350;7.578;2023-04-09T07:30:55;100593.03;;;9.75;64.67
47883;BME280;37739;50.350;7.578;2023-04-09T07:33:23;100591.38;;;9.76;63.63
47883;BME280;37739;50.350;7.578;2023-04-09T07:35:48;100594.97;;;9.79;63.55
47883;BME280;37739;50.350;7.578;2023-04-09T07:38:14;100599.88;;;9.91;63.71
47883;BME280;37739;50.350;7.578;2023-04-09T07:40:40;100598.41;;;9.96;63.35
47883;BME280;37739;50.350;7.578;2023-04-09T07:43:08;100600.72;;;10.08;63.15
47883;BME280;37739;50.350;7.578;2023-04-09T07:45:37;100592.63;;;10.17;62.91
47883;BME280;37739;50.350;7.578;2023-04-09T07:48:05;100596.25;;;10.20;62.75
47883;BME280;37739;50.350;7.578;2023-04-09T07:50:35;100596.06;;;10.17;62.34
47883;BME280;37739;50.350;7.578;2023-04-09T07:53:01;100590.25;;;10.20;62.57
47883;BME280;37739;50.350;7.578;2023-04-09T07:55:26;100595.16;;;10.32;63.00
47883;BME280;37739;50.350;7.578;2023-04-09T07:57:52;100592.31;;;10.44;62.18
47883;BME280;37739;50.350;7.578;2023-04-09T08:00:18;100586.03;;;10.55;62.15
47883;BME280;37739;50.350;7.578;2023-04-09T08:02:43;100587.94;;;10.59;61.88
47883;BME280;37739;50.350;7.578;2023-04-09T08:05:11;100596.22;;;10.71;61.65
47883;BME280;37739;50.350;7.578;2023-04-09T08:07:36;100597.34;;;10.76;61.40
47883;BME280;37739;50.350;7.578;2023-04-09T08:10:01;100589.88;;;10.81;61.44
47883;BME280;37739;50.350;7.578;2023-04-09T08:12:27;100594.03;;;10.61;61.73
47883;BME280;37739;50.350;7.578;2023-04-09T08:14:52;100601.84;;;10.46;62.06
47883;BME280;37739;50.350;7.578;2023-04-09T08:17:17;100606.38;;;10.34;62.68
47883;BME280;37739;50.350;7.578;2023-04-09T08:19:43;100605.94;;;10.26;62.58
47883;BME280;37739;50.350;7.578;2023-04-09T08:22:13;100607.06;;;10.31;63.04
47883;BME280;37739;50.350;7.578;2023-04-09T08:24:41;100605.66;;;10.54;62.33
47883;BME280;37739;50.350;7.578;2023-04-09T08:27:10;100593.78;;;10.56;62.29
47883;BME280;37739;50.350;7.578;2023-04-09T08:29:37;100593.38;;;10.65;62.33
47883;BME280;37739;50.350;7.578;2023-04-09T08:32:06;100598.00;;;10.72;62.33
47883;BME280;37739;50.350;7.578;2023-04-09T08:34:34;100600.34;;;10.68;62.12
47883;BME280;37739;50.350;7.578;2023-04-09T08:37:00;100607.16;;;10.67;62.11
47883;BME280;37739;50.350;7.578;2023-04-09T08:39:25;100599.66;;;10.72;61.87
47883;BME280;37739;50.350;7.578;2023-04-09T08:41:51;100605.00;;;10.58;62.19
47883;BME280;37739;50.350;7.578;2023-04-09T08:44:19;100600.50;;;10.71;62.54
47883;BME280;37739;50.350;7.578;2023-04-09T08:46:46;100603.00;;;11.05;61.56
47883;BME280;37739;50.350;7.578;2023-04-09T08:49:13;100600.28;;;11.20;60.72
47883;BME280;37739;50.350;7.578;2023-04-09T08:51:47;100597.50;;;11.15;60.48
47883;BME280;37739;50.350;7.578;2023-04-09T08:54:16;100596.75;;;11.36;59.43
47883;BME280;37739;50.350;7.578;2023-04-09T08:56:44;100595.50;;;11.65;59.88
47883;BME280;37739;50.350;7.578;2023-04-09T08:59:13;100600.34;;;11.96;59.32
47883;BME280;37739;50.350;7.578;2023-04-09T09:01:41;100597.44;;;12.08;58.11
47883;BME280;37739;50.350;7.578;2023-04-09T09:04:08;100592.56;;;12.34;57.78
47883;BME280;37739;50.350;7.578;2023-04-09T09:06:35;100595.25;;;12.37;58.16
47883;BME280;37739;50.350;7.578;2023-04-09T09:09:09;100600.53;;;12.40;56.64
47883;BME280;37739;50.350;7.578;2023-04-09T09:11:36;100600.03;;;12.49;57.44
47883;BME280;37739;50.350;7.578;2023-04-09T09:14:07;100598.25;;;12.27;54.90
47883;BME280;37739;50.350;7.578;2023-04-09T09:16:33;100600.31;;;12.14;57.30
47883;BME280;37739;50.350;7.578;2023-04-09T09:19:01;100599.66;;;12.40;57.69
47883;BME280;37739;50.350;7.578;2023-04-09T09:21:27;100593.19;;;12.49;57.20
47883;BME280;37739;50.350;7.578;2023-04-09T09:23:57;100587.63;;;12.60;55.85
47883;BME280;37739;50.350;7.578;2023-04-09T09:26:27;100590.88;;;12.55;56.24
47883;BME280;37739;50.350;7.578;2023-04-09T09:28:54;100588.41;;;12.58;56.48
47883;BME280;37739;50.350;7.578;2023-04-09T09:31:26;100586.28;;;12.90;56.13
47883;BME280;37739;50.350;7.578;2023-04-09T09:33:53;100584.78;;;12.95;55.42
47883;BME280;37739;50.350;7.578;2023-04-09T09:36:37;100590.94;;;12.57;54.11
47883;BME280;37739;50.350;7.578;2023-04-09T09:39:03;100592.91;;;12.43;55.99
47883;BME280;37739;50.350;7.578;2023-04-09T09:41:34;100585.28;;;12.87;55.57
47883;BME280;37739;50.350;7.578;2023-04-09T09:43:59;100586.31;;;13.34;54.53
47883;BME280;37739;50.350;7.578;2023-04-09T09:46:25;100584.13;;;13.45;54.71
47883;BME280;37739;50.350;7.578;2023-04-09T09:48:55;100575.25;;;13.15;53.58
47883;BME280;37739;50.350;7.578;2023-04-09T09:51:24;100576.34;;;13.00;54.99
47883;BME280;37739;50.350;7.578;2023-04-09T09:53:54;100575.09;;;13.11;54.44
47883;BME280;37739;50.350;7.578;2023-04-09T09:56:26;100570.41;;;13.23;53.72
47883;BME280;37739;50.350;7.578;2023-04-09T10:01:32;100564.41;;;13.45;54.17
47883;BME280;37739;50.350;7.578;2023-04-09T10:04:01;100559.22;;;13.92;52.85
47883;BME280;37739;50.350;7.578;2023-04-09T10:06:31;100564.84;;;13.58;52.79
47883;BME280;37739;50.350;7.578;2023-04-09T10:09:03;100561.06;;;13.48;51.37
47883;BME280;37739;50.350;7.578;2023-04-09T10:11:36;100557.13;;;13.58;51.04
47883;BME280;37739;50.350;7.578;2023-04-09T10:14:05;100556.25;;;13.81;50.92
47883;BME280;37739;50.350;7.578;2023-04-09T10:16:32;100547.06;;;13.89;51.39
47883;BME280;37739;50.350;7.578;2023-04-09T10:18:59;100540.03;;;14.35;49.79
47883;BME280;37739;50.350;7.578;2023-04-09T10:21:42;100539.31;;;14.39;46.52
47883;BME280;37739;50.350;7.578;2023-04-09T10:24:10;100540.38;;;13.94;49.65
47883;BME280;37739;50.350;7.578;2023-04-09T10:26:39;100539.97;;;13.82;49.07
47883;BME280;37739;50.350;7.578;2023-04-09T10:29:12;100538.66;;;13.95;47.19
47883;BME280;37739;50.350;7.578;2023-04-09T10:31:54;100536.25;;;14.51;47.35
47883;BME280;37739;50.350;7.578;2023-04-09T10:34:27;100533.88;;;14.83;46.93
47883;BME280;37739;50.350;7.578;2023-04-09T10:36:56;100534.47;;;15.30;46.38
47883;BME280;37739;50.350;7.578;2023-04-09T10:39:31;100526.47;;;15.52;45.12
47883;BME280;37739;50.350;7.578;2023-04-09T10:42:00;100528.03;;;15.17;43.75
47883;BME280;37739;50.350;7.578;2023-04-09T10:44:31;100534.94;;;14.62;46.63
47883;BME280;37739;50.350;7.578;2023-04-09T10:46:59;100532.50;;;14.41;45.48
47883;BME280;37739;50.350;7.578;2023-04-09T10:49:35;100529.13;;;14.17;46.25
47883;BME280;37739;50.350;7.578;2023-04-09T10:52:00;100535.50;;;14.02;46.60
47883;BME280;37739;50.350;7.578;2023-04-09T10:59:35;100531.72;;;14.18;47.63
47883;BME280;37739;50.350;7.578;2023-04-09T11:02:01;100529.16;;;14.69;47.04
47883;BME280;37739;50.350;7.578;2023-04-09T11:07:04;100527.66;;;14.76;44.96
47883;BME280;37739;50.350;7.578;2023-04-09T11:09:33;100520.41;;;14.66;45.23
47883;BME280;37739;50.350;7.578;2023-04-09T11:11:59;100521.56;;;14.48;46.38
47883;BME280;37739;50.350;7.578;2023-04-09T11:14:28;100527.34;;;14.41;45.84
47883;BME280;37739;50.350;7.578;2023-04-09T11:16:56;100530.13;;;14.22;45.61
47883;BME280;37739;50.350;7.578;2023-04-09T11:19:21;100527.66;;;14.25;46.84
47883;BME280;37739;50.350;7.578;2023-04-09T11:21:55;100527.94;;;14.32;47.32
47883;BME280;37739;50.350;7.578;2023-04-09T11:24:24;100532.66;;;14.20;46.01
47883;BME280;37739;50.350;7.578;2023-04-09T11:26:53;100519.72;;;14.19;46.91
47883;BME280;37739;50.350;7.578;2023-04-09T11:29:23;100515.75;;;14.28;45.76
47883;BME280;37739;50.350;7.578;2023-04-09T11:31:49;100518.47;;;14.33;45.46
47883;BME280;37739;50.350;7.578;2023-04-09T11:34:16;100519.41;;;14.35;45.81
47883;BME280;37739;50.350;7.578;2023-04-09T11:36:41;100518.00;;;14.45;44.41
47883;BME280;37739;50.350;7.578;2023-04-09T11:39:07;100512.88;;;14.99;43.21
47883;BME280;37739;50.350;7.578;2023-04-09T11:41:39;100504.47;;;15.67;41.75
47883;BME280;37739;50.350;7.578;2023-04-09T11:44:07;100513.00;;;15.64;43.01
47883;BME280;37739;50.350;7.578;2023-04-09T11:46:33;100508.31;;;15.49;43.03
47883;BME280;37739;50.350;7.578;2023-04-09T11:48:59;100513.22;;;15.40;43.02
47883;BME280;37739;50.350;7.578;2023-04-09T11:51:26;100505.66;;;15.48;43.41
47883;BME280;37739;50.350;7.578;2023-04-09T11:53:54;100510.41;;;15.95;41.18
47883;BME280;37739;50.350;7.578;2023-04-09T11:56:21;100513.16;;;16.01;41.17
47883;BME280;37739;50.350;7.578;2023-04-09T11:58:49;100504.13;;;16.18;39.54
47883;BME280;37739;50.350;7.578;2023-04-09T12:01:15;100517.50;;;16.72;39.95
47883;BME280;37739;50.350;7.578;2023-04-09T12:03:42;100505.50;;;17.12;38.33
47883;BME280;37739;50.350;7.578;2023-04-09T12:06:08;100500.78;;;16.59;39.23
47883;BME280;37739;50.350;7.578;2023-04-09T12:08:34;100504.28;;;16.61;39.33
47883;BME280;37739;50.350;7.578;2023-04-09T12:11:27;100503.50;;;16.27;38.51
47883;BME280;37739;50.350;7.578;2023-04-09T12:14:00;100491.19;;;15.85;39.45
47883;BME280;37739;50.350;7.578;2023-04-09T12:16:29;100502.81;;;15.69;40.94
47883;BME280;37739;50.350;7.578;2023-04-09T12:19:01;100495.59;;;15.57;40.96
47883;BME280;37739;50.350;7.578;2023-04-09T12:21:50;100500.41;;;15.45;40.37
47883;BME280;37739;50.350;7.578;2023-04-09T12:24:18;100503.63;;;15.36;41.16
47883;BME280;37739;50.350;7.578;2023-04-09T12:26:46;100501.16;;;15.41;40.44
47883;BME280;37739;50.350;7.578;2023-04-09T12:29:17;100496.06;;;15.44;39.66
47883;BME280;37739;50.350;7.578;2023-04-09T12:31:46;100494.09;;;15.35;41.51
47883;BME280;37739;50.350;7.578;2023-04-09T12:34:16;100495.06;;;15.39;41.70
47883;BME280;37739;50.350;7.578;2023-04-09T12:36:44;100498.44;;;15.36;41.19
47883;BME280;37739;50.350;7.578;2023-04-09T12:39:09;100494.56;;;15.22;40.98
47883;BME280;37739;50.350;7.578;2023-04-09T12:41:35;100502.25;;;15.19;41.52
47883;BME280;37739;50.350;7.578;2023-04-09T12:44:02;100506.91;;;15.30;40.75
47883;BME280;37739;50.350;7.578;2023-04-09T12:46:29;100506.44;;;15.15;40.54
47883;BME280;37739;50.350;7.578;2023-04-09T12:48:58;100499.63;;;15.47;41.44
47883;BME280;37739;50.350;7.578;2023-04-09T12:51:24;100506.97;;;16.64;40.17
47883;BME280;37739;50.350;7.578;2023-04-09T12:53:49;100503.56;;;16.66;38.94
47883;BME280;37739;50.350;7.578;2023-04-09T12:56:15;100503.50;;;16.63;38.97
47883;BME280;37739;50.350;7.578;2023-04-09T12:58:42;100503.13;;;16.48;39.54
47883;BME280;37739;50.350;7.578;2023-04-09T13:01:08;100500.94;;;16.28;39.68
47883;BME280;37739;50.350;7.578;2023-04-09T13:03:35;100495.81;;;16.32;39.30
47883;BME280;37739;50.350;7.578;2023-04-09T13:06:00;100494.19;;;16.35;38.03
47883;BME280;37739;50.350;7.578;2023-04-09T13:08:26;100497.72;;;16.39;38.91
47883;BME280;37739;50.350;7.578;2023-04-09T13:10:56;100489.78;;;16.31;39.71
47883;BME280;37739;50.350;7.578;2023-04-09T13:13:24;100489.28;;;16.11;39.57
47883;BME280;37739;50.350;7.578;2023-04-09T13:15:50;100487.38;;;16.04;40.70
47883;BME280;37739;50.350;7.578;2023-04-09T13:18:16;100488.00;;;15.95;40.79
47883;BME280;37739;50.350;7.578;2023-04-09T13:20:44;100485.09;;;15.83;40.38